sensor_id;sensor_type;location;lat;lon;timestamp;pressure;altitude;pressure_sealevel;temperature;humidity
18858;BME280;9558;50.178;8.370;2023-02-19T00:01:36;98545.97;;;9.60;100.00
18858;BME280;9558;50.178;8.370;2023-02-19T00:04:04;98542.06;;;9.56;100.00
18858;BME280;9558;50.178;8.370;2023-02-19T00:06:32;98545.50;;;9.56;100.00
18858;BME280;9558;50.178;8.370;2023-02-19T00:08:59;98540.16;;;9.58;100.00
18858;BME280;9558;50.178;8.370;2023-02-19T00:11:28;98536.59;;;9.59;100.00
18858;BME280;9558;50.178;8.370;2023-02-19T00:13:56;98544.06;;;9.62;100.00
18858;BME280;9558;50.178;8.370;2023-02-19T00:16:24;98548.53;;;9.60;100.00
18858;BME280;9558;50.178;8.370;2023-02-19T00:18:54;98540.16;;;9.58;100.00
18858;BME280;9558;50.178;8.370;2023-02-19T00:21:22;98542.25;;;9.62;100.00
18858;BME280;9558;50.178;8.370;2023-02-19T00:23:49;98558.88;;;9.60;100.00
18858;BME280;9558;50.178;8.370;2023-02-19T00:26:16;98557.25;;;9.59;100.00
18858;BME280;9558;50.178;8.370;2023-02-19T00:28:43;98550.16;;;9.61;100.00
18858;BME280;9558;50.178;8.370;2023-02-19T00:31:14;98553.41;;;9.63;100.00
18858;BME280;9558;50.178;8.370;2023-02-19T00:33:42;98546.31;;;9.65;100.00
18858;BME280;9558;50.178;8.370;2023-02-19T00:36:10;98551.78;;;9.62;100.00
18858;BME280;9558;50.178;8.370;2023-02-19T00:38:38;98551.47;;;9.65;100.00
18858;BME280;9558;50.178;8.370;2023-02-19T00:41:06;98534.19;;;9.65;100.00
18858;BME280;9558;50.178;8.370;2023-02-19T00:43:45;98540.47;;;9.63;100.00
18858;BME280;9558;50.178;8.370;2023-02-19T00:46:11;98542.75;;;9.66;100.00
18858;BME280;9558;50.178;8.370;2023-02-19T00:48:38;98528.84;;;9.67;100.00
18858;BME280;9558;50.178;8.370;2023-02-19T00:51:04;98541.13;;;9.65;100.00
18858;BME280;9558;50.178;8.370;2023-02-19T00:53:32;98540.31;;;9.64;100.00
18858;BME280;9558;50.178;8.370;2023-02-19T00:55:59;98544.34;;;9.67;100.00
18858;BME280;9558;50.178;8.370;2023-02-19T00:58:25;98534.34;;;9.64;100.00
18858;BME280;9558;50.178;8.370;2023-02-19T01:00:52;98526.28;;;9.67;100.00
18858;BME280;9558;50.178;8.370;2023-02-19T01:03:18;98521.25;;;9.65;100.00
18858;BME280;9558;50.178;8.370;2023-02-19T01:05:46;98521.44;;;9.64;100.00
18858;BME280;9558;50.178;8.370;2023-02-19T01:08:13;98524.50;;;9.67;100.00
18858;BME280;9558;50.178;8.370;2023-02-19T01:10:41;98533.84;;;9.68;100.00
18858;BME280;9558;50.178;8.370;2023-02-19T01:13:07;98540.81;;;9.68;100.00
18858;BME280;9558;50.178;8.370;2023-02-19T01:15:34;98534.84;;;9.67;100.00
18858;BME280;9558;50.178;8.370;2023-02-19T01:18:01;98527.72;;;9.69;100.00
18858;BME280;9558;50.178;8.370;2023-02-19T01:20:27;98514.97;;;9.68;100.00
18858;BME280;9558;50.178;8.370;2023-02-19T01:22:54;98523.06;;;9.73;100.00
18858;BME280;9558;50.178;8.370;2023-02-19T01:25:20;98528.53;;;9.70;100.00
18858;BME280;9558;50.178;8.370;2023-02-19T01:27:48;98523.69;;;9.67;100.00
18858;BME280;9558;50.178;8.370;2023-02-19T01:30:15;98524.50;;;9.67;100.00
18858;BME280;9558;50.178;8.370;2023-02-19T01:32:41;98517.72;;;9.66;100.00
18858;BME280;9558;50.178;8.370;2023-02-19T01:35:08;98516.25;;;9.64;100.00
18858;BME280;9558;50.178;8.370;2023-02-19T01:37:34;98516.59;;;9.61;100.00
18858;BME280;9558;50.178;8.370;2023-02-19T01:40:01;98512.03;;;9.63;100.00
18858;BME280;9558;50.178;8.370;2023-02-19T01:42:28;98510.44;;;9.62;100.00
18858;BME280;9558;50.178;8.370;2023-02-19T01:45:24;98500.91;;;9.62;100.00
18858;BME280;9558;50.178;8.370;2023-02-19T01:47:58;98500.13;;;9.62;100.00
18858;BME280;9558;50.178;8.370;2023-02-19T01:50:27;98504.63;;;9.60;100.00
18858;BME280;9558;50.178;8.370;2023-02-19T01:52:55;98502.03;;;9.60;100.00
18858;BME280;9558;50.178;8.370;2023-02-19T01:55:22;98507.22;;;9.60;100.00
18858;BME280;9558;50.178;8.370;2023-02-19T01:57:52;98501.41;;;9.58;100.00
18858;BME280;9558;50.178;8.370;2023-02-19T02:00:20;98501.56;;;9.56;100.00
18858;BME280;9558;50.178;8.370;2023-02-19T02:02:51;98496.41;;;9.56;100.00
18858;BME280;9558;50.178;8.370;2023-02-19T02:05:24;98509.16;;;9.58;100.00
18858;BME280;9558;50.178;8.370;2023-02-19T02:07:55;98496.88;;;9.60;100.00
18858;BME280;9558;50.178;8.370;2023-02-19T02:10:39;98493.16;;;9.54;100.00
18858;BME280;9558;50.178;8.370;2023-02-19T02:13:06;98494.59;;;9.57;100.00
18858;BME280;9558;50.178;8.370;2023-02-19T02:15:40;98487.03;;;9.55;100.00
18858;BME280;9558;50.178;8.370;2023-02-19T02:18:15;98481.34;;;9.51;100.00
18858;BME280;9558;50.178;8.370;2023-02-19T02:21:03;98482.34;;;9.50;100.00
18858;BME280;9558;50.178;8.370;2023-02-19T02:23:39;98466.84;;;9.50;100.00
18858;BME280;9558;50.178;8.370;2023-02-19T02:26:23;98472.00;;;9.50;100.00
18858;BME280;9558;50.178;8.370;2023-02-19T02:29:22;98472.97;;;9.49;100.00
18858;BME280;9558;50.178;8.370;2023-02-19T02:31:57;98468.94;;;9.47;100.00
18858;BME280;9558;50.178;8.370;2023-02-19T02:34:27;98466.50;;;9.45;100.00
18858;BME280;9558;50.178;8.370;2023-02-19T02:36:56;98476.84;;;9.45;100.00
18858;BME280;9558;50.178;8.370;2023-02-19T02:39:25;98462.28;;;9.44;100.00
18858;BME280;9558;50.178;8.370;2023-02-19T02:41:55;98457.13;;;9.44;100.00
18858;BME280;9558;50.178;8.370;2023-02-19T02:44:40;98464.25;;;9.42;100.00
18858;BME280;9558;50.178;8.370;2023-02-19T02:47:29;98452.97;;;9.43;100.00
18858;BME280;9558;50.178;8.370;2023-02-19T02:50:14;98464.25;;;9.42;100.00
18858;BME280;9558;50.178;8.370;2023-02-19T02:52:46;98460.19;;;9.40;100.00
18858;BME280;9558;50.178;8.370;2023-02-19T02:55:36;98452.16;;;9.34;100.00
18858;BME280;9558;50.178;8.370;2023-02-19T02:58:04;98455.38;;;9.37;100.00
18858;BME280;9558;50.178;8.370;2023-02-19T03:00:32;98451.81;;;9.38;100.00
18858;BME280;9558;50.178;8.370;2023-02-19T03:03:27;98463.28;;;9.35;100.00
18858;BME280;9558;50.178;8.370;2023-02-19T03:05:58;98451.66;;;9.39;100.00
18858;BME280;9558;50.178;8.370;2023-02-19T03:08:29;98456.16;;;9.37;100.00
18858;BME280;9558;50.178;8.370;2023-02-19T03:10:59;98448.13;;;9.40;100.00
18858;BME280;9558;50.178;8.370;2023-02-19T03:13:49;98450.53;;;9.42;100.00
18858;BME280;9558;50.178;8.370;2023-02-19T03:16:37;98446.50;;;9.39;100.00
18858;BME280;9558;50.178;8.370;2023-02-19T03:19:26;98440.38;;;9.40;100.00
18858;BME280;9558;50.178;8.370;2023-02-19T03:21:57;98441.00;;;9.42;100.00
18858;BME280;9558;50.178;8.370;2023-02-19T03:24:27;98443.59;;;9.42;100.00
18858;BME280;9558;50.178;8.370;2023-02-19T03:27:13;98438.41;;;9.42;100.00
18858;BME280;9558;50.178;8.370;2023-02-19T03:29:42;98428.09;;;9.42;100.00
18858;BME280;9558;50.178;8.370;2023-02-19T03:32:12;98434.03;;;9.43;100.00
18858;BME280;9558;50.178;8.370;2023-02-19T03:34:43;98440.38;;;9.40;100.00
18858;BME280;9558;50.178;8.370;2023-02-19T03:37:14;98442.28;;;9.38;100.00
18858;BME280;9558;50.178;8.370;2023-02-19T03:39:42;98445.03;;;9.37;100.00
18858;BME280;9558;50.178;8.370;2023-02-19T03:42:19;98441.81;;;9.34;100.00
18858;BME280;9558;50.178;8.370;2023-02-19T03:45:00;98436.94;;;9.31;100.00
18858;BME280;9558;50.178;8.370;2023-02-19T03:47:29;98450.03;;;9.30;100.00
18858;BME280;9558;50.178;8.370;2023-02-19T03:50:01;98444.22;;;9.28;100.00
18858;BME280;9558;50.178;8.370;2023-02-19T03:52:36;98453.25;;;9.32;100.00
18858;BME280;9558;50.178;8.370;2023-02-19T03:55:09;98450.69;;;9.32;100.00
18858;BME280;9558;50.178;8.370;2023-02-19T03:57:42;98452.94;;;9.35;100.00
18858;BME280;9558;50.178;8.370;2023-02-19T04:00:14;98458.75;;;9.37;100.00
18858;BME280;9558;50.178;8.370;2023-02-19T04:02:46;98447.44;;;9.38;100.00
18858;BME280;9558;50.178;8.370;2023-02-19T04:05:18;98444.88;;;9.38;100.00
18858;BME280;9558;50.178;8.370;2023-02-19T04:07:49;98437.91;;;9.39;100.00
18858;BME280;9558;50.178;8.370;2023-02-19T04:10:17;98438.75;;;9.39;100.00
18858;BME280;9558;50.178;8.370;2023-02-19T04:12:47;98442.13;;;9.40;100.00
18858;BME280;9558;50.178;8.370;2023-02-19T04:15:19;98441.16;;;9.41;100.00
18858;BME280;9558;50.178;8.370;2023-02-19T04:17:52;98439.53;;;9.40;100.00
18858;BME280;9558;50.178;8.370;2023-02-19T04:20:22;98438.75;;;9.39;100.00
18858;BME280;9558;50.178;8.370;2023-02-19T04:22:50;98442.28;;;9.38;100.00
18858;BME280;9558;50.178;8.370;2023-02-19T04:25:17;98437.13;;;9.38;100.00
18858;BME280;9558;50.178;8.370;2023-02-19T04:27:44;98431.16;;;9.38;100.00
18858;BME280;9558;50.178;8.370;2023-02-19T04:30:12;98446.97;;;9.34;100.00
18858;BME280;9558;50.178;8.370;2023-02-19T04:32:39;98447.78;;;9.35;100.00
18858;BME280;9558;50.178;8.370;2023-02-19T04:35:06;98448.09;;;9.32;100.00
18858;BME280;9558;50.178;8.370;2023-02-19T04:37:34;98451.81;;;9.29;100.00
18858;BME280;9558;50.178;8.370;2023-02-19T04:40:00;98464.06;;;9.27;100.00
18858;BME280;9558;50.178;8.370;2023-02-19T04:42:27;98453.25;;;9.24;100.00
18858;BME280;9558;50.178;8.370;2023-02-19T04:44:53;98461.31;;;9.21;100.00
18858;BME280;9558;50.178;8.370;2023-02-19T04:47:20;98466.47;;;9.21;100.00
18858;BME280;9558;50.178;8.370;2023-02-19T04:49:46;98475.34;;;9.18;100.00
18858;BME280;9558;50.178;8.370;2023-02-19T04:52:13;98481.78;;;9.14;100.00
18858;BME280;9558;50.178;8.370;2023-02-19T04:54:41;98489.38;;;9.15;100.00
18858;BME280;9558;50.178;8.370;2023-02-19T04:57:07;98486.16;;;9.13;100.00
18858;BME280;9558;50.178;8.370;2023-02-19T04:59:34;98485.84;;;9.16;100.00
18858;BME280;9558;50.178;8.370;2023-02-19T05:02:00;98489.38;;;9.15;100.00
18858;BME280;9558;50.178;8.370;2023-02-19T05:04:26;98480.66;;;9.16;100.00
18858;BME280;9558;50.178;8.370;2023-02-19T05:06:53;98482.28;;;9.18;100.00
18858;BME280;9558;50.178;8.370;2023-02-19T05:09:20;98487.47;;;9.18;100.00
18858;BME280;9558;50.178;8.370;2023-02-19T05:11:47;98493.25;;;9.20;100.00
18858;BME280;9558;50.178;8.370;2023-02-19T05:14:14;98501.34;;;9.16;100.00
18858;BME280;9558;50.178;8.370;2023-02-19T05:16:41;98498.75;;;9.16;100.00
18858;BME280;9558;50.178;8.370;2023-02-19T05:19:09;98498.59;;;9.18;100.00
18858;BME280;9558;50.178;8.370;2023-02-19T05:21:35;98503.75;;;9.18;100.00
18858;BME280;9558;50.178;8.370;2023-02-19T05:24:04;98497.47;;;9.21;100.00
18858;BME280;9558;50.178;8.370;2023-02-19T05:26:30;98500.84;;;9.21;100.00
18858;BME280;9558;50.178;8.370;2023-02-19T05:28:59;98502.63;;;9.21;100.00
18858;BME280;9558;50.178;8.370;2023-02-19T05:31:25;98496.34;;;9.23;100.00
18858;BME280;9558;50.178;8.370;2023-02-19T05:33:55;98500.53;;;9.24;100.00
18858;BME280;9558;50.178;8.370;2023-02-19T05:36:22;98505.69;;;9.24;100.00
18858;BME280;9558;50.178;8.370;2023-02-19T05:38:51;98513.28;;;9.26;100.00
18858;BME280;9558;50.178;8.370;2023-02-19T05:41:21;98514.28;;;9.25;100.00
18858;BME280;9558;50.178;8.370;2023-02-19T05:43:48;98515.06;;;9.25;100.00
18858;BME280;9558;50.178;8.370;2023-02-19T05:46:18;98515.06;;;9.25;100.00
18858;BME280;9558;50.178;8.370;2023-02-19T05:48:45;98517.00;;;9.23;100.00
18858;BME280;9558;50.178;8.370;2023-02-19T05:51:14;98526.50;;;9.23;100.00
18858;BME280;9558;50.178;8.370;2023-02-19T05:53:41;98521.34;;;9.23;100.00
18858;BME280;9558;50.178;8.370;2023-02-19T05:56:23;98526.84;;;9.20;100.00
18858;BME280;9558;50.178;8.370;2023-02-19T05:58:49;98535.84;;;9.15;100.00
18858;BME280;9558;50.178;8.370;2023-02-19T06:01:19;98534.88;;;9.08;100.00
18858;BME280;9558;50.178;8.370;2023-02-19T06:03:46;98540.34;;;9.05;100.00
18858;BME280;9558;50.178;8.370;2023-02-19T06:06:13;98544.19;;;9.01;100.00
18858;BME280;9558;50.178;8.370;2023-02-19T06:08:40;98550.63;;;8.97;100.00
18858;BME280;9558;50.178;8.370;2023-02-19T06:11:07;98555.16;;;8.95;100.00
18858;BME280;9558;50.178;8.370;2023-02-19T06:13:34;98555.16;;;8.95;100.00
18858;BME280;9558;50.178;8.370;2023-02-19T06:16:02;98563.84;;;8.94;100.00
18858;BME280;9558;50.178;8.370;2023-02-19T06:18:30;98565.47;;;8.95;100.00
18858;BME280;9558;50.178;8.370;2023-02-19T06:20:59;98560.31;;;8.95;100.00
18858;BME280;9558;50.178;8.370;2023-02-19T06:23:26;98567.38;;;8.93;100.00
18858;BME280;9558;50.178;8.370;2023-02-19T06:25:52;98570.63;;;8.95;100.00
18858;BME280;9558;50.178;8.370;2023-02-19T06:28:19;98572.56;;;8.93;100.00
18858;BME280;9558;50.178;8.370;2023-02-19T06:30:45;98576.91;;;8.92;100.00
18858;BME280;9558;50.178;8.370;2023-02-19T06:33:12;98570.63;;;8.95;100.00
18858;BME280;9558;50.178;8.370;2023-02-19T06:35:40;98581.75;;;8.95;100.00
18858;BME280;9558;50.178;8.370;2023-02-19T06:38:06;98586.13;;;8.95;100.00
18858;BME280;9558;50.178;8.370;2023-02-19T06:40:33;98589.66;;;8.94;100.00
18858;BME280;9558;50.178;8.370;2023-02-19T06:42:59;98594.66;;;8.95;100.00
18858;BME280;9558;50.178;8.370;2023-02-19T06:45:25;98598.09;;;8.96;100.00
18858;BME280;9558;50.178;8.370;2023-02-19T06:47:52;98603.09;;;8.97;100.00
18858;BME280;9558;50.178;8.370;2023-02-19T06:50:18;98603.88;;;8.98;100.00
18858;BME280;9558;50.178;8.370;2023-02-19T06:52:46;98616.47;;;9.01;100.00
18858;BME280;9558;50.178;8.370;2023-02-19T06:55:13;98615.38;;;9.04;100.00
18858;BME280;9558;50.178;8.370;2023-02-19T06:57:39;98623.91;;;9.04;100.00
18858;BME280;9558;50.178;8.370;2023-02-19T07:00:07;98620.38;;;9.05;100.00
18858;BME280;9558;50.178;8.370;2023-02-19T07:02:34;98621.19;;;9.06;100.00
18858;BME280;9558;50.178;8.370;2023-02-19T07:05:00;98634.09;;;9.06;100.00
18858;BME280;9558;50.178;8.370;2023-02-19T07:07:27;98623.59;;;9.07;100.00
18858;BME280;9558;50.178;8.370;2023-02-19T07:09:55;98631.66;;;9.04;100.00
18858;BME280;9558;50.178;8.370;2023-02-19T07:12:21;98629.22;;;9.03;100.00
18858;BME280;9558;50.178;8.370;2023-02-19T07:14:48;98636.81;;;9.04;100.00
18858;BME280;9558;50.178;8.370;2023-02-19T07:17:14;98625.03;;;9.02;100.00
18858;BME280;9558;50.178;8.370;2023-02-19T07:19:41;98633.59;;;9.02;100.00
18858;BME280;9558;50.178;8.370;2023-02-19T07:22:07;98637.13;;;9.01;100.00
18858;BME280;9558;50.178;8.370;2023-02-19T07:24:34;98638.75;;;9.02;100.00
18858;BME280;9558;50.178;8.370;2023-02-19T07:27:02;98634.41;;;9.03;100.00
18858;BME280;9558;50.178;8.370;2023-02-19T07:29:28;98630.06;;;9.03;100.00
18858;BME280;9558;50.178;8.370;2023-02-19T07:31:55;98633.59;;;9.02;100.00
18858;BME280;9558;50.178;8.370;2023-02-19T07:34:21;98637.50;;;9.06;100.00
18858;BME280;9558;50.178;8.370;2023-02-19T07:36:48;98650.41;;;9.06;100.00
18858;BME280;9558;50.178;8.370;2023-02-19T07:39:14;98645.56;;;9.03;100.00
18858;BME280;9558;50.178;8.370;2023-02-19T07:41:41;98655.56;;;9.06;100.00
18858;BME280;9558;50.178;8.370;2023-02-19T07:44:09;98655.25;;;9.09;100.00
18858;BME280;9558;50.178;8.370;2023-02-19T07:46:38;98666.22;;;9.11;100.00
18858;BME280;9558;50.178;8.370;2023-02-19T07:49:04;98660.09;;;9.12;100.00
18858;BME280;9558;50.178;8.370;2023-02-19T07:51:31;98670.44;;;9.12;100.00
18858;BME280;9558;50.178;8.370;2023-02-19T07:53:58;98673.97;;;9.11;100.00
18858;BME280;9558;50.178;8.370;2023-02-19T07:56:24;98674.28;;;9.08;100.00
18858;BME280;9558;50.178;8.370;2023-02-19T07:58:53;98682.69;;;9.10;100.00
18858;BME280;9558;50.178;8.370;2023-02-19T08:01:22;98687.25;;;9.16;100.00
18858;BME280;9558;50.178;8.370;2023-02-19T08:04:10;98688.03;;;9.17;100.00
18858;BME280;9558;50.178;8.370;2023-02-19T08:06:36;98684.50;;;9.18;100.00
18858;BME280;9558;50.178;8.370;2023-02-19T08:09:03;98692.41;;;9.16;100.00
18858;BME280;9558;50.178;8.370;2023-02-19T08:11:30;98704.38;;;9.18;100.00
18858;BME280;9558;50.178;8.370;2023-02-19T08:14:14;98708.56;;;9.19;100.00
18858;BME280;9558;50.178;8.370;2023-02-19T08:16:48;98708.41;;;9.20;100.00
18858;BME280;9558;50.178;8.370;2023-02-19T08:19:14;98720.34;;;9.21;100.00
18858;BME280;9558;50.178;8.370;2023-02-19T08:21:41;98723.09;;;9.20;100.00
18858;BME280;9558;50.178;8.370;2023-02-19T08:24:08;98733.09;;;9.23;100.00
18858;BME280;9558;50.178;8.370;2023-02-19T08:26:34;98733.63;;;9.26;100.00
18858;BME280;9558;50.178;8.370;2023-02-19T08:29:01;98738.34;;;9.31;100.00
18858;BME280;9558;50.178;8.370;2023-02-19T08:31:28;98737.06;;;9.35;100.00
18858;BME280;9558;50.178;8.370;2023-02-19T08:33:56;98750.13;;;9.33;100.00
18858;BME280;9558;50.178;8.370;2023-02-19T08:36:22;98749.31;;;9.33;100.00
18858;BME280;9558;50.178;8.370;2023-02-19T08:38:49;98753.22;;;9.37;100.00
18858;BME280;9558;50.178;8.370;2023-02-19T08:41:16;98752.72;;;9.33;100.00
18858;BME280;9558;50.178;8.370;2023-02-19T08:43:42;98764.81;;;9.33;100.00
18858;BME280;9558;50.178;8.370;2023-02-19T08:46:10;98775.13;;;9.33;100.00
18858;BME280;9558;50.178;8.370;2023-02-19T08:48:37;98765.47;;;9.35;100.00
18858;BME280;9558;50.178;8.370;2023-02-19T08:51:07;98765.84;;;9.40;100.00
18858;BME280;9558;50.178;8.370;2023-02-19T08:53:35;98770.41;;;9.46;100.00
18858;BME280;9558;50.178;8.370;2023-02-19T08:56:03;98762.03;;;9.52;100.00
18858;BME280;9558;50.178;8.370;2023-02-19T08:58:30;98770.94;;;9.58;100.00
18858;BME280;9558;50.178;8.370;2023-02-19T09:00:57;98770.19;;;9.66;100.00
18858;BME280;9558;50.178;8.370;2023-02-19T09:03:24;98762.75;;;9.71;100.00
18858;BME280;9558;50.178;8.370;2023-02-19T09:05:51;98770.72;;;9.78;100.00
18858;BME280;9558;50.178;8.370;2023-02-19T09:08:19;98786.25;;;9.86;100.00
18858;BME280;9558;50.178;8.370;2023-02-19T09:10:56;98782.38;;;9.90;100.00
18858;BME280;9558;50.178;8.370;2023-02-19T09:13:23;98790.00;;;9.92;100.00
18858;BME280;9558;50.178;8.370;2023-02-19T09:15:49;98798.41;;;9.94;100.00
18858;BME280;9558;50.178;8.370;2023-02-19T09:18:16;98803.56;;;9.94;100.00
18858;BME280;9558;50.178;8.370;2023-02-19T09:20:43;98810.69;;;9.92;100.00
18858;BME280;9558;50.178;8.370;2023-02-19T09:23:09;98808.38;;;9.89;100.00
18858;BME280;9558;50.178;8.370;2023-02-19T09:25:37;98804.84;;;9.90;100.00
18858;BME280;9558;50.178;8.370;2023-02-19T09:28:04;98808.38;;;9.89;100.00
18858;BME280;9558;50.178;8.370;2023-02-19T09:30:31;98812.91;;;9.86;100.00
18858;BME280;9558;50.178;8.370;2023-02-19T09:32:57;98798.34;;;9.85;100.00
18858;BME280;9558;50.178;8.370;2023-02-19T09:35:24;98805.63;;;9.82;100.00
18858;BME280;9558;50.178;8.370;2023-02-19T09:37:50;98805.13;;;9.78;100.00
18858;BME280;9558;50.178;8.370;2023-02-19T09:40:17;98813.03;;;9.77;100.00
18858;BME280;9558;50.178;8.370;2023-02-19T09:42:48;98810.75;;;9.74;100.00
18858;BME280;9558;50.178;8.370;2023-02-19T09:45:20;98810.06;;;9.72;100.00
18858;BME280;9558;50.178;8.370;2023-02-19T09:47:52;98810.38;;;9.68;100.00
18858;BME280;9558;50.178;8.370;2023-02-19T09:50:23;98812.78;;;9.62;100.00
18858;BME280;9558;50.178;8.370;2023-02-19T09:52:54;98818.13;;;9.60;100.00
18858;BME280;9558;50.178;8.370;2023-02-19T09:55:28;98815.97;;;9.56;100.00
18858;BME280;9558;50.178;8.370;2023-02-19T09:57:58;98824.72;;;9.55;100.00
18858;BME280;9558;50.178;8.370;2023-02-19T10:00:26;98833.72;;;9.50;100.00
18858;BME280;9558;50.178;8.370;2023-02-19T10:02:59;98830.78;;;9.45;100.00
18858;BME280;9558;50.178;8.370;2023-02-19T10:05:29;98843.03;;;9.43;100.00
18858;BME280;9558;50.178;8.370;2023-02-19T10:07:56;98834.31;;;9.44;100.00
18858;BME280;9558;50.178;8.370;2023-02-19T10:10:27;98839.19;;;9.47;100.00
18858;BME280;9558;50.178;8.370;2023-02-19T10:12:58;98837.63;;;9.55;100.00
18858;BME280;9558;50.178;8.370;2023-02-19T10:15:31;98842.66;;;9.64;100.00
18858;BME280;9558;50.178;8.370;2023-02-19T10:18:00;98843.84;;;9.70;100.00
18858;BME280;9558;50.178;8.370;2023-02-19T10:20:27;98848.41;;;9.76;100.00
18858;BME280;9558;50.178;8.370;2023-02-19T10:22:59;98850.84;;;9.78;100.00
18858;BME280;9558;50.178;8.370;2023-02-19T10:25:27;98854.91;;;9.80;100.00
18858;BME280;9558;50.178;8.370;2023-02-19T10:27:58;98862.66;;;9.80;100.00
18858;BME280;9558;50.178;8.370;2023-02-19T10:30:28;98861.22;;;9.86;100.00
18858;BME280;9558;50.178;8.370;2023-02-19T10:33:01;98863.81;;;9.86;100.00
18858;BME280;9558;50.178;8.370;2023-02-19T10:35:28;98867.06;;;9.88;100.00
18858;BME280;9558;50.178;8.370;2023-02-19T10:37:56;98878.34;;;9.87;100.00
18858;BME280;9558;50.178;8.370;2023-02-19T10:40:25;98887.44;;;9.91;100.00
18858;BME280;9558;50.178;8.370;2023-02-19T10:42:55;98898.06;;;9.88;100.00
18858;BME280;9558;50.178;8.370;2023-02-19T10:45:31;98903.03;;;9.81;100.00
18858;BME280;9558;50.178;8.370;2023-02-19T10:47:59;98903.03;;;9.81;100.00
18858;BME280;9558;50.178;8.370;2023-02-19T10:50:29;98896.53;;;9.77;100.00
18858;BME280;9558;50.178;8.370;2023-02-19T10:52:58;98903.97;;;9.72;100.00
18858;BME280;9558;50.178;8.370;2023-02-19T10:55:31;98911.34;;;9.67;100.00
18858;BME280;9558;50.178;8.370;2023-02-19T10:58:22;98909.75;;;9.66;100.00
18858;BME280;9558;50.178;8.370;2023-02-19T11:01:11;98915.56;;;9.68;100.00
18858;BME280;9558;50.178;8.370;2023-02-19T11:03:39;98910.75;;;9.73;100.00
18858;BME280;9558;50.178;8.370;2023-02-19T11:06:07;98912.06;;;9.77;100.00
18858;BME280;9558;50.178;8.370;2023-02-19T11:08:45;98906.28;;;9.83;100.00
18858;BME280;9558;50.178;8.370;2023-02-19T11:11:24;98915.06;;;9.91;100.00
18858;BME280;9558;50.178;8.370;2023-02-19T11:13:53;98911.53;;;10.00;100.00
18858;BME280;9558;50.178;8.370;2023-02-19T11:16:22;98922.91;;;10.07;100.00
18858;BME280;9558;50.178;8.370;2023-02-19T11:18:53;98913.88;;;10.11;100.00
18858;BME280;9558;50.178;8.370;2023-02-19T11:21:26;98919.56;;;10.15;100.00
18858;BME280;9558;50.178;8.370;2023-02-19T11:23:58;98926.53;;;10.23;100.00
18858;BME280;9558;50.178;8.370;2023-02-19T11:26:26;98929.19;;;10.31;100.00
18858;BME280;9558;50.178;8.370;2023-02-19T11:28:58;98934.13;;;10.42;100.00
18858;BME280;9558;50.178;8.370;2023-02-19T11:31:27;98925.13;;;10.54;100.00
18858;BME280;9558;50.178;8.370;2023-02-19T11:33:58;98928.03;;;10.60;100.00
18858;BME280;9558;50.178;8.370;2023-02-19T11:36:27;98923.22;;;10.73;100.00
18858;BME280;9558;50.178;8.370;2023-02-19T11:38:54;98929.69;;;10.77;100.00
18858;BME280;9558;50.178;8.370;2023-02-19T11:41:29;98937.81;;;10.82;100.00
18858;BME280;9558;50.178;8.370;2023-02-19T11:44:13;98932.84;;;10.89;100.00
18858;BME280;9558;50.178;8.370;2023-02-19T11:46:48;98933.63;;;10.89;100.00
18858;BME280;9558;50.178;8.370;2023-02-19T11:49:28;98948.38;;;10.89;100.00
18858;BME280;9558;50.178;8.370;2023-02-19T11:52:12;98947.53;;;10.88;100.00
18858;BME280;9558;50.178;8.370;2023-02-19T11:54:50;98937.19;;;10.88;100.00
18858;BME280;9558;50.178;8.370;2023-02-19T11:57:31;98947.84;;;10.85;100.00
18858;BME280;9558;50.178;8.370;2023-02-19T12:00:17;98947.22;;;10.83;100.00
18858;BME280;9558;50.178;8.370;2023-02-19T12:03:10;98952.38;;;10.75;100.00
18858;BME280;9558;50.178;8.370;2023-02-19T12:05:49;98940.69;;;10.71;100.00
18858;BME280;9558;50.178;8.370;2023-02-19T12:08:54;98940.34;;;10.66;100.00
18858;BME280;9558;50.178;8.370;2023-02-19T12:11:43;98935.31;;;10.64;100.00
18858;BME280;9558;50.178;8.370;2023-02-19T12:14:51;98942.59;;;10.61;100.00
18858;BME280;9558;50.178;8.370;2023-02-19T12:17:37;98943.69;;;10.50;100.00
18858;BME280;9558;50.178;8.370;2023-02-19T12:20:13;98942.88;;;10.49;100.00
18858;BME280;9558;50.178;8.370;2023-02-19T12:22:49;98932.84;;;10.46;100.00
18858;BME280;9558;50.178;8.370;2023-02-19T12:25:25;98941.56;;;10.45;100.00
18858;BME280;9558;50.178;8.370;2023-02-19T12:28:10;98932.16;;;10.44;100.00
18858;BME280;9558;50.178;8.370;2023-02-19T12:31:01;98933.81;;;10.45;100.00
18858;BME280;9558;50.178;8.370;2023-02-19T12:33:43;98946.13;;;10.51;100.00
18858;BME280;9558;50.178;8.370;2023-02-19T12:36:19;98948.25;;;10.56;100.00
18858;BME280;9558;50.178;8.370;2023-02-19T12:38:57;98935.47;;;10.63;100.00
18858;BME280;9558;50.178;8.370;2023-02-19T12:41:35;98931.78;;;10.65;100.00
18858;BME280;9558;50.178;8.370;2023-02-19T12:44:10;98924.38;;;10.70;100.00
18858;BME280;9558;50.178;8.370;2023-02-19T12:46:41;98924.53;;;10.77;100.00
18858;BME280;9558;50.178;8.370;2023-02-19T12:49:14;98931.34;;;10.78;100.00
18858;BME280;9558;50.178;8.370;2023-02-19T12:51:47;98931.34;;;10.78;100.00
18858;BME280;9558;50.178;8.370;2023-02-19T12:54:18;98931.66;;;10.75;100.00
18858;BME280;9558;50.178;8.370;2023-02-19T12:56:52;98927.44;;;10.74;100.00
18858;BME280;9558;50.178;8.370;2023-02-19T12:59:23;98923.22;;;10.73;100.00
18858;BME280;9558;50.178;8.370;2023-02-19T13:01:59;98929.69;;;10.77;100.00
18858;BME280;9558;50.178;8.370;2023-02-19T13:04:36;98923.41;;;10.80;100.00
18858;BME280;9558;50.178;8.370;2023-02-19T13:07:12;98932.31;;;10.85;100.00
18858;BME280;9558;50.178;8.370;2023-02-19T13:09:45;98942.34;;;10.88;100.00
18858;BME280;9558;50.178;8.370;2023-02-19T13:12:18;98938.66;;;10.91;100.00
18858;BME280;9558;50.178;8.370;2023-02-19T13:14:48;98938.31;;;10.94;100.00
18858;BME280;9558;50.178;8.370;2023-02-19T13:17:23;98928.16;;;11.01;100.00
18858;BME280;9558;50.178;8.370;2023-02-19T13:19:56;98931.41;;;11.11;100.00
18858;BME280;9558;50.178;8.370;2023-02-19T13:22:30;98934.66;;;11.13;99.27
18858;BME280;9558;50.178;8.370;2023-02-19T13:25:18;98934.66;;;11.21;100.00
18858;BME280;9558;50.178;8.370;2023-02-19T13:28:06;98944.06;;;11.22;98.94
18858;BME280;9558;50.178;8.370;2023-02-19T13:31:00;98936.94;;;11.24;99.21